createdAt,value
2023-04-06T00:18:22.106Z,19.2
2023-04-06T00:48:21.838Z,19.2
2023-04-06T01:18:22.098Z,19.0
2023-04-06T01:48:21.848Z,19.0
2023-04-06T02:18:22.107Z,18.9
2023-04-06T02:48:22.197Z,18.8
2023-04-06T03:18:22.085Z,18.8
2023-04-06T03:48:22.076Z,19.0
2023-04-06T04:18:22.082Z,19.3
2023-04-06T04:48:21.843Z,19.3
2023-04-06T05:18:22.116Z,19.6
2023-04-06T05:48:22.126Z,19.6
2023-04-06T06:18:22.119Z,19.9
2023-04-06T06:48:22.085Z,20.1
2023-04-06T07:18:22.105Z,20.2
2023-04-06T07:48:22.075Z,20.3
2023-04-06T08:18:22.075Z,20.4
2023-04-06T08:48:22.214Z,20.5
2023-04-06T09:18:22.096Z,20.5
2023-04-06T09:48:22.115Z,20.1
2023-04-06T10:18:22.071Z,20.0
2023-04-06T10:48:22.074Z,20.0
2023-04-06T11:18:22.072Z,20.0
2023-04-06T11:48:22.237Z,20.0
2023-04-06T12:18:22.079Z,19.9
2023-04-06T12:48:22.175Z,20.0
2023-04-06T13:18:22.244Z,20.0
2023-04-06T13:48:21.971Z,20.0
2023-04-06T14:18:22.219Z,20.1
2023-04-06T14:48:21.966Z,20.1
2023-04-06T15:18:22.216Z,20.0
2023-04-06T15:48:22.036Z,20.0
2023-04-06T16:18:22.229Z,20.0
2023-04-06T16:48:22.115Z,20.0
2023-04-06T17:18:22.243Z,20.0
2023-04-06T17:48:22.222Z,20.0
2023-04-06T18:18:22.204Z,20.1
2023-04-06T18:48:22.200Z,20.0
2023-04-06T19:18:22.242Z,20.0
2023-04-06T19:48:22.232Z,19.9
2023-04-06T20:18:21.881Z,19.9
2023-04-06T20:48:22.307Z,19.7
2023-04-06T21:18:22.134Z,19.6
2023-04-06T21:48:22.054Z,19.5
2023-04-06T22:18:22.187Z,19.5
2023-04-06T22:48:22.384Z,19.4
2023-04-06T23:18:22.183Z,19.3
2023-04-06T23:48:22.032Z,19.3
